createdAt,value
2022-09-04T00:01:18.020Z,0.30
2022-09-04T00:03:52.147Z,0.40
2022-09-04T00:06:22.921Z,0.30
2022-09-04T00:08:58.609Z,0.50
2022-09-04T00:11:45.016Z,0.30
2022-09-04T00:14:16.187Z,0.33
2022-09-04T00:16:47.040Z,0.97
2022-09-04T00:19:20.512Z,0.30
2022-09-04T00:21:51.755Z,0.30
2022-09-04T00:24:21.044Z,2.33
2022-09-04T00:26:52.970Z,2.30
2022-09-04T00:29:24.080Z,0.73
2022-09-04T00:31:54.560Z,1.83
2022-09-04T00:34:34.928Z,2.60
2022-09-04T00:37:06.706Z,1.00
2022-09-04T00:39:38.454Z,0.30
2022-09-04T00:42:10.085Z,0.30
2022-09-04T00:44:49.288Z,0.63
2022-09-04T00:47:29.833Z,0.50
2022-09-04T00:50:07.045Z,0.70
2022-09-04T00:52:45.919Z,0.40
2022-09-04T00:55:22.028Z,0.73
2022-09-04T00:58:11.651Z,2.33
2022-09-04T01:00:40.328Z,0.47
2022-09-04T01:03:22.446Z,0.57
2022-09-04T01:06:05.423Z,1.47
2022-09-04T01:08:41.404Z,0.30
2022-09-04T01:11:12.855Z,0.60
2022-09-04T01:13:44.349Z,1.40
2022-09-04T01:16:14.388Z,1.53
2022-09-04T01:18:48.182Z,1.13
2022-09-04T01:21:31.012Z,0.57
2022-09-04T01:24:10.355Z,0.30
2022-09-04T01:26:45.265Z,1.00
2022-09-04T01:29:17.693Z,1.20
2022-09-04T01:31:50.399Z,1.13
2022-09-04T01:34:31.013Z,0.90
2022-09-04T01:37:02.193Z,0.40
2022-09-04T01:39:32.835Z,0.30
2022-09-04T01:42:07.026Z,0.93
2022-09-04T01:44:35.759Z,0.90
2022-09-04T01:47:11.037Z,1.37
2022-09-04T01:49:40.424Z,3.00
2022-09-04T01:52:14.202Z,2.43
2022-09-04T01:54:48.337Z,0.40
2022-09-04T01:57:22.016Z,0.90
2022-09-04T01:59:56.248Z,0.80
2022-09-04T02:02:26.573Z,1.07
2022-09-04T02:05:05.044Z,0.87
2022-09-04T02:07:39.619Z,0.67
2022-09-04T02:10:11.884Z,1.87
2022-09-04T02:12:50.953Z,1.37
2022-09-04T02:15:26.999Z,2.20
2022-09-04T02:18:01.320Z,1.27
2022-09-04T02:20:31.928Z,0.87
2022-09-04T02:23:06.044Z,3.90
2022-09-04T02:25:36.899Z,1.00
2022-09-04T02:28:11.808Z,0.90
2022-09-04T02:30:45.315Z,0.40
2022-09-04T02:33:16.667Z,0.50
2022-09-04T02:35:47.754Z,7.87
2022-09-04T02:38:20.252Z,7.40
2022-09-04T02:40:52.213Z,0.83
2022-09-04T02:43:26.453Z,2.97
2022-09-04T02:46:00.342Z,4.87
2022-09-04T02:48:35.190Z,0.80
2022-09-04T02:51:14.343Z,3.13
2022-09-04T02:53:47.516Z,0.77
2022-09-04T02:56:22.232Z,1.27
2022-09-04T02:59:09.081Z,1.60
2022-09-04T03:01:40.216Z,0.40
2022-09-04T03:04:14.106Z,0.70
2022-09-04T03:06:48.386Z,0.77
2022-09-04T03:09:19.608Z,0.30
2022-09-04T03:11:52.322Z,0.30
2022-09-04T03:14:25.126Z,8.37
2022-09-04T03:16:55.553Z,1.13
2022-09-04T03:19:27.865Z,0.40
2022-09-04T03:21:58.186Z,0.40
2022-09-04T03:24:31.882Z,0.70
2022-09-04T03:27:03.343Z,0.93
2022-09-04T03:29:38.036Z,0.30
2022-09-04T03:32:15.969Z,0.47
2022-09-04T03:34:49.501Z,2.00
2022-09-04T03:37:24.571Z,2.23
2022-09-04T03:39:58.434Z,2.60
2022-09-04T03:42:32.196Z,0.60
2022-09-04T03:45:08.678Z,1.13
2022-09-04T03:47:42.322Z,0.30
2022-09-04T03:50:16.271Z,0.90
2022-09-04T03:52:48.044Z,1.77
2022-09-04T03:55:25.556Z,4.30
2022-09-04T03:57:59.847Z,2.83
2022-09-04T04:00:31.798Z,0.97
2022-09-04T04:03:18.362Z,1.00
2022-09-04T04:05:52.506Z,1.03
2022-09-04T04:08:34.560Z,1.43
2022-09-04T04:11:11.997Z,1.70
2022-09-04T04:13:55.393Z,0.70
2022-09-04T04:16:31.312Z,1.87
2022-09-04T04:19:11.478Z,0.40
2022-09-04T04:21:55.536Z,0.70
2022-09-04T04:24:38.956Z,0.70
2022-09-04T04:27:14.897Z,0.40
2022-09-04T04:29:53.634Z,1.43
2022-09-04T04:32:31.135Z,0.40
2022-09-04T04:35:11.373Z,0.53
2022-09-04T04:37:43.459Z,0.33
2022-09-04T04:40:16.840Z,0.50
2022-09-04T04:42:51.361Z,0.30
2022-09-04T04:45:42.295Z,0.40
2022-09-04T04:48:23.902Z,0.43
2022-09-04T04:50:55.142Z,0.30
2022-09-04T04:53:27.805Z,1.47
2022-09-04T04:55:58.441Z,0.50
2022-09-04T04:58:34.604Z,0.30
2022-09-04T05:01:06.504Z,0.63
2022-09-04T05:03:46.059Z,0.73
2022-09-04T05:06:18.255Z,1.10
2022-09-04T05:08:50.527Z,0.63
2022-09-04T05:11:23.139Z,0.93
2022-09-04T05:13:55.964Z,1.17
2022-09-04T05:16:27.947Z,0.77
2022-09-04T05:18:59.954Z,0.40
2022-09-04T05:21:32.913Z,0.80
2022-09-04T05:24:04.500Z,0.40
2022-09-04T05:26:38.447Z,0.40
2022-09-04T05:29:08.957Z,1.50
2022-09-04T05:31:40.983Z,0.37
2022-09-04T05:34:13.763Z,1.00
2022-09-04T05:36:48.709Z,0.60
2022-09-04T05:39:20.303Z,2.03
2022-09-04T05:41:57.653Z,2.90
2022-09-04T05:44:47.140Z,1.70
2022-09-04T05:47:20.046Z,0.97
2022-09-04T05:49:54.104Z,1.17
2022-09-04T05:52:36.630Z,1.17
2022-09-04T05:55:13.598Z,1.37
2022-09-04T05:57:50.368Z,2.33
2022-09-04T06:00:19.924Z,2.67
2022-09-04T06:02:57.080Z,1.63
2022-09-04T06:05:31.692Z,1.23
2022-09-04T06:08:03.375Z,1.60
2022-09-04T06:10:37.727Z,2.57
2022-09-04T06:13:23.279Z,2.93
2022-09-04T06:15:56.186Z,0.57
2022-09-04T06:18:36.672Z,1.03
2022-09-04T06:21:22.009Z,1.27
2022-09-04T06:24:05.092Z,0.40
2022-09-04T06:26:45.646Z,0.40
2022-09-04T06:29:19.092Z,1.13
2022-09-04T06:31:59.042Z,0.40
2022-09-04T06:34:35.182Z,11.13
2022-09-04T06:37:08.930Z,8.43
2022-09-04T06:39:52.313Z,6.30
2022-09-04T06:42:28.024Z,2.03
2022-09-04T06:45:03.771Z,1.50
2022-09-04T06:47:37.542Z,0.63
2022-09-04T06:50:14.419Z,2.27
2022-09-04T06:52:46.768Z,2.20
2022-09-04T06:55:18.554Z,2.20
2022-09-04T06:57:55.281Z,3.53
2022-09-04T07:00:23.708Z,3.87
2022-09-04T07:03:14.922Z,2.77
2022-09-04T07:05:46.428Z,3.07
2022-09-04T07:08:21.471Z,5.83
2022-09-04T07:10:54.663Z,4.63
2022-09-04T07:13:35.712Z,6.60
2022-09-04T07:16:10.929Z,6.67
2022-09-04T07:18:54.370Z,8.23
2022-09-04T07:21:27.742Z,8.00
2022-09-04T07:24:04.808Z,9.07
2022-09-04T07:26:36.459Z,6.40
2022-09-04T07:29:15.362Z,12.80
2022-09-04T07:31:45.840Z,6.13
2022-09-04T07:34:18.275Z,2.50
2022-09-04T07:36:51.082Z,11.80
2022-09-04T07:39:22.942Z,10.57
2022-09-04T07:41:55.873Z,10.37
2022-09-04T07:44:30.710Z,7.50
2022-09-04T07:47:12.265Z,9.00
2022-09-04T07:49:44.408Z,4.17
2022-09-04T07:52:19.910Z,5.03
2022-09-04T07:54:56.683Z,4.03
2022-09-04T07:57:43.236Z,7.63
2022-09-04T08:00:15.379Z,10.87
2022-09-04T08:02:57.079Z,9.03
2022-09-04T08:05:26.247Z,2.33
2022-09-04T08:08:12.902Z,3.40
2022-09-04T08:10:45.070Z,6.63
2022-09-04T08:13:33.649Z,7.27
2022-09-04T08:16:07.606Z,7.50
2022-09-04T08:18:45.039Z,0.63
2022-09-04T08:21:17.721Z,22.40
2022-09-04T08:24:00.061Z,12.97
2022-09-04T08:26:33.395Z,3.50
2022-09-04T08:29:07.122Z,4.13
2022-09-04T08:31:40.267Z,3.60
2022-09-04T08:34:15.439Z,0.50
2022-09-04T08:36:46.810Z,12.50
2022-09-04T08:39:17.505Z,12.90
2022-09-04T08:42:08.722Z,10.03
2022-09-04T08:44:52.927Z,15.27
2022-09-04T08:47:39.133Z,10.20
2022-09-04T08:50:20.827Z,6.53
2022-09-04T08:53:07.802Z,19.20
2022-09-04T08:55:48.579Z,23.17
2022-09-04T08:58:26.004Z,17.57
2022-09-04T09:01:05.846Z,6.50
2022-09-04T09:03:54.016Z,17.37
2022-09-04T09:06:42.208Z,1.87
2022-09-04T09:09:28.927Z,3.20
2022-09-04T09:12:18.513Z,12.40
2022-09-04T09:15:11.329Z,13.53
2022-09-04T09:17:40.624Z,19.27
2022-09-04T09:20:20.543Z,13.40
2022-09-04T09:23:13.737Z,9.30
2022-09-04T09:25:50.651Z,5.37
2022-09-04T09:28:39.822Z,3.53
2022-09-04T09:31:27.183Z,6.13
2022-09-04T09:34:11.548Z,1.20
2022-09-04T09:36:58.878Z,8.40
2022-09-04T09:39:43.056Z,0.77
2022-09-04T09:42:25.681Z,5.80
2022-09-04T09:45:03.831Z,4.60
2022-09-04T09:47:46.817Z,3.97
2022-09-04T09:50:39.383Z,7.03
2022-09-04T09:53:31.998Z,2.73
2022-09-04T09:56:32.106Z,1.20
2022-09-04T09:59:28.043Z,5.03
2022-09-04T10:02:16.091Z,1.73
2022-09-04T10:04:53.763Z,7.57
2022-09-04T10:07:47.651Z,13.33
2022-09-04T10:10:25.311Z,7.40
2022-09-04T10:13:12.323Z,10.97
2022-09-04T10:15:59.120Z,3.20
2022-09-04T10:18:42.315Z,2.40
2022-09-04T10:21:20.798Z,2.87
2022-09-04T10:24:05.991Z,5.37
2022-09-04T10:26:46.903Z,9.97
2022-09-04T10:29:38.945Z,16.83
2022-09-04T10:32:25.243Z,11.97
2022-09-04T10:35:10.818Z,3.90
2022-09-04T10:37:49.383Z,13.53
2022-09-04T10:40:43.347Z,11.53
2022-09-04T10:43:24.425Z,14.23
2022-09-04T10:46:01.132Z,12.83
2022-09-04T10:48:41.630Z,9.43
2022-09-04T10:51:22.017Z,12.13
2022-09-04T10:54:11.172Z,13.70
2022-09-04T10:56:42.921Z,2.73
2022-09-04T10:59:26.210Z,14.10
2022-09-04T11:02:05.262Z,0.47
2022-09-04T11:04:45.778Z,10.80
2022-09-04T11:07:49.257Z,6.80
2022-09-04T11:10:32.452Z,1.30
2022-09-04T11:13:11.220Z,0.90
2022-09-04T11:15:58.472Z,3.00
2022-09-04T11:18:45.472Z,5.27
2022-09-04T11:21:40.733Z,5.23
2022-09-04T11:24:36.185Z,7.10
2022-09-04T11:27:23.779Z,3.40
2022-09-04T11:30:03.592Z,2.90
2022-09-04T11:32:52.092Z,8.00
2022-09-04T11:35:38.345Z,6.07
2022-09-04T11:38:10.515Z,7.80
2022-09-04T11:40:57.564Z,1.37
2022-09-04T11:43:38.016Z,7.93
2022-09-04T11:46:26.223Z,5.40
2022-09-04T11:49:07.957Z,8.70
2022-09-04T11:52:00.271Z,5.20
2022-09-04T11:54:41.204Z,6.63
2022-09-04T11:57:14.807Z,6.27
2022-09-04T11:59:58.014Z,4.10
2022-09-04T12:02:48.451Z,4.40
2022-09-04T12:05:24.783Z,6.33
2022-09-04T12:08:04.429Z,2.67
2022-09-04T12:10:55.736Z,3.60
2022-09-04T12:13:32.798Z,7.33
2022-09-04T12:16:04.927Z,7.13
2022-09-04T12:18:44.729Z,5.57
2022-09-04T12:21:37.808Z,1.37
2022-09-04T12:24:21.025Z,0.97
2022-09-04T12:27:00.896Z,4.20
2022-09-04T12:29:39.925Z,3.40
2022-09-04T12:32:17.645Z,4.23
2022-09-04T12:34:55.462Z,2.43
2022-09-04T12:37:35.633Z,11.23
2022-09-04T12:40:23.114Z,1.93
2022-09-04T12:42:57.335Z,5.60
2022-09-04T12:45:28.489Z,4.57
2022-09-04T12:48:03.269Z,12.63
2022-09-04T12:50:35.150Z,3.90
2022-09-04T12:53:15.783Z,2.40
2022-09-04T12:55:48.271Z,2.47
2022-09-04T12:58:21.504Z,7.13
2022-09-04T13:00:55.346Z,5.30
2022-09-04T13:03:27.683Z,2.47
2022-09-04T13:06:04.305Z,2.93
2022-09-04T13:08:37.635Z,2.33
2022-09-04T13:11:13.791Z,2.67
2022-09-04T13:13:48.173Z,3.07
2022-09-04T13:16:20.450Z,1.10
2022-09-04T13:19:00.211Z,5.77
2022-09-04T13:21:40.628Z,0.80
2022-09-04T13:24:13.401Z,1.90
2022-09-04T13:26:52.248Z,0.70
2022-09-04T13:29:27.962Z,1.33
2022-09-04T13:32:00.993Z,5.40
2022-09-04T13:34:37.926Z,2.47
2022-09-04T13:37:11.201Z,7.97
2022-09-04T13:39:51.678Z,5.53
2022-09-04T13:42:35.607Z,4.00
2022-09-04T13:45:07.449Z,3.97
2022-09-04T13:47:47.140Z,3.73
2022-09-04T13:50:22.561Z,3.73
2022-09-04T13:52:58.229Z,3.37
2022-09-04T13:55:28.932Z,2.97
2022-09-04T13:58:01.637Z,1.87
2022-09-04T14:00:32.164Z,4.27
2022-09-04T14:03:02.200Z,1.87
2022-09-04T14:05:31.225Z,2.53
2022-09-04T14:08:03.905Z,2.37
2022-09-04T14:10:46.669Z,4.13
2022-09-04T14:13:23.231Z,1.80
2022-09-04T14:16:03.998Z,1.07
2022-09-04T14:18:45.365Z,3.03
2022-09-04T14:21:18.611Z,2.27
2022-09-04T14:23:50.288Z,9.17
2022-09-04T14:26:25.832Z,4.27
2022-09-04T14:28:58.225Z,5.20
2022-09-04T14:31:33.956Z,5.33
2022-09-04T14:34:07.104Z,2.53
2022-09-04T14:36:38.636Z,4.60
2022-09-04T14:39:18.179Z,6.23
2022-09-04T14:41:54.452Z,5.33
2022-09-04T14:44:32.934Z,4.60
2022-09-04T14:47:07.371Z,3.60
2022-09-04T14:49:41.539Z,3.90
2022-09-04T14:52:19.787Z,5.03
2022-09-04T14:54:53.199Z,2.63
2022-09-04T14:57:26.899Z,3.57
2022-09-04T15:00:01.150Z,1.83
2022-09-04T15:02:36.005Z,3.13
2022-09-04T15:05:07.790Z,3.13
2022-09-04T15:07:54.952Z,3.80
2022-09-04T15:10:26.944Z,8.40
2022-09-04T15:12:57.624Z,4.63
2022-09-04T15:15:31.622Z,6.60
2022-09-04T15:18:02.107Z,4.20
2022-09-04T15:20:34.380Z,5.33
2022-09-04T15:23:04.179Z,3.77
2022-09-04T15:25:58.152Z,3.50
2022-09-04T15:28:31.023Z,6.23
2022-09-04T15:31:05.756Z,3.23
2022-09-04T15:33:34.170Z,5.23
2022-09-04T15:36:07.721Z,2.70
2022-09-04T15:38:36.668Z,6.30
2022-09-04T15:41:17.062Z,5.83
2022-09-04T15:43:48.524Z,4.07
2022-09-04T15:46:26.040Z,4.83
2022-09-04T15:48:57.905Z,5.57
2022-09-04T15:51:29.448Z,5.17
2022-09-04T15:54:22.185Z,5.10
2022-09-04T15:56:59.933Z,4.03
2022-09-04T15:59:33.215Z,2.07
2022-09-04T16:02:06.161Z,3.17
2022-09-04T16:04:35.971Z,4.93
2022-09-04T16:07:30.937Z,6.53
2022-09-04T16:10:03.597Z,6.20
2022-09-04T16:12:35.133Z,5.00
2022-09-04T16:15:08.065Z,4.47
2022-09-04T16:17:42.050Z,6.00
2022-09-04T16:20:18.390Z,3.57
2022-09-04T16:22:48.783Z,2.80
2022-09-04T16:25:27.154Z,2.73
2022-09-04T16:27:59.000Z,5.90
2022-09-04T16:30:33.018Z,5.70
2022-09-04T16:33:01.993Z,7.07
2022-09-04T16:35:33.405Z,7.07
2022-09-04T16:38:06.254Z,9.33
2022-09-04T16:40:35.578Z,4.93
2022-09-04T16:43:10.720Z,11.90
2022-09-04T16:45:41.579Z,5.13
2022-09-04T16:48:33.887Z,5.33
2022-09-04T16:51:25.940Z,6.10
2022-09-04T16:53:58.811Z,6.07
2022-09-04T16:56:36.904Z,4.50
2022-09-04T16:59:18.172Z,5.30
2022-09-04T17:01:49.192Z,8.33
2022-09-04T17:04:29.628Z,6.57
2022-09-04T17:07:03.610Z,7.57
2022-09-04T17:09:38.551Z,6.77
2022-09-04T17:12:18.192Z,6.60
2022-09-04T17:14:50.024Z,5.90
2022-09-04T17:17:31.252Z,5.70
2022-09-04T17:20:10.667Z,8.83
2022-09-04T17:28:58.185Z,9.97
2022-09-04T17:29:02.430Z,3.67
2022-09-04T17:29:24.372Z,5.77
2022-09-04T17:31:35.692Z,8.47
2022-09-04T17:40:33.084Z,9.17
2022-09-04T17:40:33.703Z,9.23
2022-09-04T17:40:50.301Z,7.20
2022-09-04T17:43:14.819Z,7.73
2022-09-04T17:45:38.313Z,8.73
2022-09-04T17:48:11.849Z,9.53
2022-09-04T17:50:48.889Z,5.07
2022-09-04T17:53:33.650Z,8.73
2022-09-04T17:56:07.018Z,6.03
2022-09-04T17:58:38.226Z,4.57
2022-09-04T18:01:14.691Z,5.13
2022-09-04T18:04:02.955Z,2.83
2022-09-04T18:06:50.942Z,4.20
2022-09-04T18:09:26.621Z,1.90
2022-09-04T18:12:03.289Z,5.87
2022-09-04T18:14:35.362Z,4.63
2022-09-04T18:17:11.851Z,1.90
2022-09-04T18:19:45.987Z,0.93
2022-09-04T18:22:32.015Z,3.97
2022-09-04T18:25:14.364Z,3.63
2022-09-04T18:28:06.155Z,5.23
2022-09-04T18:37:10.884Z,7.60
2022-09-04T18:37:18.390Z,0.70
2022-09-04T18:37:18.899Z,0.40
2022-09-04T18:39:27.085Z,0.63
2022-09-04T18:48:17.294Z,0.70
2022-09-04T18:50:37.219Z,0.30
2022-09-04T18:50:49.496Z,1.57
2022-09-04T18:51:12.505Z,1.10
2022-09-04T18:53:34.105Z,2.73
2022-09-04T18:56:04.547Z,0.20
2022-09-04T18:58:53.128Z,1.83
2022-09-04T19:01:27.406Z,1.33
2022-09-04T19:03:57.633Z,1.40
2022-09-04T19:06:34.049Z,0.47
2022-09-04T19:09:09.711Z,1.50
2022-09-04T19:11:40.071Z,1.00
2022-09-04T19:14:11.279Z,4.37
2022-09-04T19:16:42.751Z,3.87
2022-09-04T19:19:17.100Z,9.07
2022-09-04T19:21:57.827Z,5.10
2022-09-04T19:24:34.691Z,2.23
2022-09-04T19:27:26.882Z,0.80
2022-09-04T19:30:05.213Z,5.13
2022-09-04T19:32:56.745Z,6.47
2022-09-04T19:35:32.200Z,1.30
2022-09-04T19:43:51.262Z,5.83
2022-09-04T19:46:00.638Z,0.93
2022-09-04T19:46:19.714Z,3.50
2022-09-04T19:46:45.475Z,1.80
2022-09-04T19:51:06.646Z,0.80
2022-09-04T19:53:35.615Z,1.87
2022-09-04T19:55:23.447Z,2.83
2022-09-04T19:57:53.293Z,5.80
2022-09-04T20:00:42.412Z,4.03
2022-09-04T20:03:28.977Z,3.60
2022-09-04T20:06:19.829Z,6.10
2022-09-04T20:08:51.846Z,0.70
2022-09-04T20:11:34.896Z,7.73
2022-09-04T20:14:11.374Z,1.20
2022-09-04T20:16:48.776Z,4.97
2022-09-04T20:19:27.642Z,13.60
2022-09-04T20:21:59.205Z,2.63
2022-09-04T20:24:30.763Z,2.87
2022-09-04T20:27:03.541Z,0.97
2022-09-04T20:29:35.069Z,1.17
2022-09-04T20:32:09.911Z,2.33
2022-09-04T20:34:41.287Z,0.93
2022-09-04T20:37:22.739Z,1.73
2022-09-04T20:39:54.688Z,1.40
2022-09-04T20:42:26.917Z,2.73
2022-09-04T20:51:09.057Z,3.97
2022-09-04T20:52:42.143Z,4.20
2022-09-04T20:53:00.567Z,1.13
2022-09-04T20:53:50.159Z,1.57
2022-09-04T20:58:32.274Z,1.80
2022-09-04T21:03:11.577Z,1.43
2022-09-04T21:03:17.938Z,0.90
2022-09-04T21:05:15.165Z,0.93
2022-09-04T21:07:47.300Z,2.77
2022-09-04T21:10:21.772Z,2.40
2022-09-04T21:13:13.991Z,2.00
2022-09-04T21:15:44.695Z,2.40
2022-09-04T21:18:22.592Z,0.80
2022-09-04T21:21:05.775Z,0.50
2022-09-04T21:23:56.592Z,0.53
2022-09-04T21:26:38.528Z,0.20
2022-09-04T21:29:26.562Z,1.43
2022-09-04T21:32:09.801Z,0.30
2022-09-04T21:34:49.654Z,2.77
2022-09-04T21:37:19.759Z,1.23
2022-09-04T21:39:58.433Z,0.30
2022-09-04T21:42:41.921Z,0.73
2022-09-04T21:45:16.237Z,2.30
2022-09-04T21:48:00.732Z,0.40
2022-09-04T21:50:48.903Z,0.80
2022-09-04T21:53:25.673Z,0.80
2022-09-04T22:00:19.227Z,0.47
2022-09-04T22:02:41.127Z,0.40
2022-09-04T22:02:41.330Z,0.50
2022-09-04T22:04:47.245Z,0.20
2022-09-04T22:11:19.390Z,0.50
2022-09-04T22:13:33.245Z,1.07
2022-09-04T22:13:42.341Z,2.77
2022-09-04T22:16:07.593Z,0.70
2022-09-04T22:18:55.643Z,1.70
2022-09-04T22:21:28.419Z,2.73
2022-09-04T22:24:18.032Z,1.90
2022-09-04T22:27:06.168Z,1.57
2022-09-04T22:29:48.300Z,0.70
2022-09-04T22:32:49.805Z,0.80
2022-09-04T22:35:42.266Z,0.33
2022-09-04T22:38:30.682Z,0.30
2022-09-04T22:41:04.548Z,1.47
2022-09-04T22:43:46.471Z,0.43
2022-09-04T22:46:31.238Z,0.30
2022-09-04T22:49:15.892Z,1.90
2022-09-04T22:51:50.247Z,0.30
2022-09-04T22:54:24.215Z,0.30
2022-09-04T22:56:57.048Z,0.30
2022-09-04T22:59:35.286Z,3.50
2022-09-04T23:02:18.257Z,1.13
2022-09-04T23:04:54.928Z,0.30
2022-09-04T23:13:44.484Z,1.60
2022-09-04T23:13:49.104Z,3.03
2022-09-04T23:14:06.425Z,0.20
2022-09-04T23:16:55.852Z,0.23
2022-09-04T23:26:31.683Z,1.27
2022-09-04T23:26:45.335Z,1.07
2022-09-04T23:26:47.728Z,0.73
2022-09-04T23:28:39.803Z,1.60
2022-09-04T23:31:37.148Z,1.07
2022-09-04T23:34:20.082Z,1.43
2022-09-04T23:37:09.517Z,3.37
2022-09-04T23:40:03.548Z,3.47
2022-09-04T23:42:48.068Z,2.50
2022-09-04T23:45:26.692Z,0.47
2022-09-04T23:48:02.131Z,0.93
2022-09-04T23:50:37.219Z,0.67
2022-09-04T23:53:11.090Z,1.03
2022-09-04T23:55:54.435Z,0.30
2022-09-04T23:58:51.817Z,0.30
